sensor_id;sensor_type;location;lat;lon;timestamp;pressure;altitude;pressure_sealevel;temperature;humidity
70555;BME280;58104;52.744;15.242;2023-07-20T00:02:01;100268.42;;;25.01;40.06
70555;BME280;58104;52.744;15.242;2023-07-20T00:04:26;100264.86;;;24.97;40.22
70555;BME280;58104;52.744;15.242;2023-07-20T00:06:51;100264.87;;;24.89;40.23
70555;BME280;58104;52.744;15.242;2023-07-20T00:09:17;100263.89;;;24.90;40.50
70555;BME280;58104;52.744;15.242;2023-07-20T00:11:48;100263.73;;;24.86;40.60
70555;BME280;58104;52.744;15.242;2023-07-20T00:14:08;100259.63;;;24.84;40.76
70555;BME280;58104;52.744;15.242;2023-07-20T00:16:33;100262.94;;;24.79;40.61
70555;BME280;58104;52.744;15.242;2023-07-20T00:18:58;100270.42;;;24.76;40.61
70555;BME280;58104;52.744;15.242;2023-07-20T00:21:24;100270.40;;;24.82;40.48
70555;BME280;58104;52.744;15.242;2023-07-20T00:23:49;100265.93;;;24.78;40.51
70555;BME280;58104;52.744;15.242;2023-07-20T00:26:14;100266.23;;;24.77;40.51
70555;BME280;58104;52.744;15.242;2023-07-20T00:28:40;100268.16;;;24.80;40.60
70555;BME280;58104;52.744;15.242;2023-07-20T00:31:05;100267.19;;;24.76;40.50
70555;BME280;58104;52.744;15.242;2023-07-20T00:33:31;100271.48;;;24.72;40.52
70555;BME280;58104;52.744;15.242;2023-07-20T00:35:56;100274.52;;;24.78;40.57
70555;BME280;58104;52.744;15.242;2023-07-20T00:38:21;100272.39;;;24.62;40.87
70555;BME280;58104;52.744;15.242;2023-07-20T00:40:47;100274.06;;;24.58;40.93
70555;BME280;58104;52.744;15.242;2023-07-20T00:43:12;100278.66;;;24.61;40.79
70555;BME280;58104;52.744;15.242;2023-07-20T00:45:38;100280.76;;;24.62;40.73
70555;BME280;58104;52.744;15.242;2023-07-20T00:48:04;100282.71;;;24.60;40.69
70555;BME280;58104;52.744;15.242;2023-07-20T00:50:29;100279.87;;;24.59;40.71
70555;BME280;58104;52.744;15.242;2023-07-20T00:52:54;100279.41;;;24.52;40.73
70555;BME280;58104;52.744;15.242;2023-07-20T00:55:19;100285.07;;;24.57;40.62
70555;BME280;58104;52.744;15.242;2023-07-20T00:57:44;100284.28;;;24.54;40.62
70555;BME280;58104;52.744;15.242;2023-07-20T01:00:10;100283.97;;;24.55;40.61
70555;BME280;58104;52.744;15.242;2023-07-20T01:02:34;100281.41;;;24.56;40.55
70555;BME280;58104;52.744;15.242;2023-07-20T01:05:00;100283.38;;;24.59;40.54
70555;BME280;58104;52.744;15.242;2023-07-20T01:07:28;100280.77;;;24.50;40.61
70555;BME280;58104;52.744;15.242;2023-07-20T01:09:58;100281.23;;;24.50;40.65
70555;BME280;58104;52.744;15.242;2023-07-20T03:47:19;100294.92;;;24.01;42.09
70555;BME280;58104;52.744;15.242;2023-07-20T03:49:45;100297.42;;;24.07;41.95
70555;BME280;58104;52.744;15.242;2023-07-20T03:52:10;100298.29;;;24.10;41.96
70555;BME280;58104;52.744;15.242;2023-07-20T03:54:36;100293.47;;;24.13;41.86
70555;BME280;58104;52.744;15.242;2023-07-20T03:57:01;100291.51;;;23.99;41.98
70555;BME280;58104;52.744;15.242;2023-07-20T03:59:27;100290.35;;;24.11;41.87
70555;BME280;58104;52.744;15.242;2023-07-20T04:01:52;100296.57;;;24.04;42.00
70555;BME280;58104;52.744;15.242;2023-07-20T04:04:17;100297.96;;;23.99;42.37
70555;BME280;58104;52.744;15.242;2023-07-20T04:06:42;100296.46;;;24.02;42.55
70555;BME280;58104;52.744;15.242;2023-07-20T04:09:08;100300.21;;;23.98;42.73
70555;BME280;58104;52.744;15.242;2023-07-20T04:11:33;100299.23;;;23.99;42.65
70555;BME280;58104;52.744;15.242;2023-07-20T04:13:59;100304.31;;;24.01;42.78
70555;BME280;58104;52.744;15.242;2023-07-20T04:16:24;100309.32;;;23.97;42.96
70555;BME280;58104;52.744;15.242;2023-07-20T04:18:50;100310.51;;;24.04;42.83
70555;BME280;58104;52.744;15.242;2023-07-20T04:21:15;100313.19;;;23.99;42.89
70555;BME280;58104;52.744;15.242;2023-07-20T04:23:40;100315.95;;;24.01;42.77
70555;BME280;58104;52.744;15.242;2023-07-20T04:26:06;100318.85;;;23.95;43.02
70555;BME280;58104;52.744;15.242;2023-07-20T04:28:31;100316.81;;;24.08;42.86
70555;BME280;58104;52.744;15.242;2023-07-20T04:31:09;100311.79;;;23.99;42.96
70555;BME280;58104;52.744;15.242;2023-07-20T04:33:22;100303.85;;;24.01;42.93
70555;BME280;58104;52.744;15.242;2023-07-20T04:35:49;100297.10;;;24.03;42.75
70555;BME280;58104;52.744;15.242;2023-07-20T04:38:13;100291.86;;;23.82;42.98
70555;BME280;58104;52.744;15.242;2023-07-20T04:40:38;100290.55;;;23.83;43.35
70555;BME280;58104;52.744;15.242;2023-07-20T04:43:03;100289.58;;;23.91;43.05
70555;BME280;58104;52.744;15.242;2023-07-20T04:45:29;100293.69;;;24.00;42.78
70555;BME280;58104;52.744;15.242;2023-07-20T04:47:54;100297.28;;;23.94;42.57
70555;BME280;58104;52.744;15.242;2023-07-20T04:50:19;100297.61;;;24.04;42.59
70555;BME280;58104;52.744;15.242;2023-07-20T04:52:45;100297.31;;;24.08;42.53
70555;BME280;58104;52.744;15.242;2023-07-20T04:55:10;100303.20;;;24.12;42.46
70555;BME280;58104;52.744;15.242;2023-07-20T04:57:35;100308.69;;;24.17;42.60
70555;BME280;58104;52.744;15.242;2023-07-20T05:00:01;100312.57;;;24.16;42.50
70555;BME280;58104;52.744;15.242;2023-07-20T05:02:26;100312.29;;;24.21;42.43
70555;BME280;58104;52.744;15.242;2023-07-20T05:04:51;100309.88;;;24.24;42.20
70555;BME280;58104;52.744;15.242;2023-07-20T05:07:17;100307.51;;;24.23;42.23
70555;BME280;58104;52.744;15.242;2023-07-20T05:09:42;100309.15;;;24.30;42.04
70555;BME280;58104;52.744;15.242;2023-07-20T05:12:08;100312.98;;;24.32;41.87
70555;BME280;58104;52.744;15.242;2023-07-20T05:14:33;100312.53;;;24.16;41.67
70555;BME280;58104;52.744;15.242;2023-07-20T05:16:58;100315.34;;;24.15;43.28
70555;BME280;58104;52.744;15.242;2023-07-20T05:19:25;100315.82;;;24.26;43.28
70555;BME280;58104;52.744;15.242;2023-07-20T05:21:49;100317.08;;;24.27;43.20
70555;BME280;58104;52.744;15.242;2023-07-20T05:24:14;100317.30;;;24.13;43.09
70555;BME280;58104;52.744;15.242;2023-07-20T05:26:39;100322.50;;;24.10;43.49
70555;BME280;58104;52.744;15.242;2023-07-20T05:29:05;100324.29;;;24.16;43.60
70555;BME280;58104;52.744;15.242;2023-07-20T05:31:30;100330.87;;;24.24;43.56
70555;BME280;58104;52.744;15.242;2023-07-20T05:33:56;100334.24;;;24.40;42.35
70555;BME280;58104;52.744;15.242;2023-07-20T05:36:21;100339.85;;;24.37;42.27
70555;BME280;58104;52.744;15.242;2023-07-20T05:38:46;100344.52;;;24.38;41.78
70555;BME280;58104;52.744;15.242;2023-07-20T05:41:12;100351.75;;;24.35;41.99
70555;BME280;58104;52.744;15.242;2023-07-20T05:43:37;100353.29;;;24.34;42.52
70555;BME280;58104;52.744;15.242;2023-07-20T05:46:02;100352.49;;;24.21;42.60
70555;BME280;58104;52.744;15.242;2023-07-20T05:48:28;100352.68;;;24.20;43.45
70555;BME280;58104;52.744;15.242;2023-07-20T05:50:53;100351.79;;;24.16;43.88
70555;BME280;58104;52.744;15.242;2023-07-20T05:53:19;100347.24;;;24.14;44.05
70555;BME280;58104;52.744;15.242;2023-07-20T05:55:44;100343.17;;;24.05;44.17
70555;BME280;58104;52.744;15.242;2023-07-20T05:58:09;100342.71;;;24.03;44.56
70555;BME280;58104;52.744;15.242;2023-07-20T06:00:35;100333.41;;;23.91;45.02
70555;BME280;58104;52.744;15.242;2023-07-20T06:03:00;100334.35;;;23.97;44.85
70555;BME280;58104;52.744;15.242;2023-07-20T06:05:26;100338.15;;;23.86;45.48
70555;BME280;58104;52.744;15.242;2023-07-20T06:07:51;100347.72;;;23.72;45.23
70555;BME280;58104;52.744;15.242;2023-07-20T06:10:16;100356.08;;;23.73;45.75
70555;BME280;58104;52.744;15.242;2023-07-20T06:12:42;100362.27;;;23.63;45.79
70555;BME280;58104;52.744;15.242;2023-07-20T06:17:32;100375.73;;;23.70;45.50
70555;BME280;58104;52.744;15.242;2023-07-20T06:19:57;100375.73;;;23.74;45.42
70555;BME280;58104;52.744;15.242;2023-07-20T06:22:23;100374.65;;;23.76;45.53
70555;BME280;58104;52.744;15.242;2023-07-20T06:24:48;100369.84;;;23.64;45.83
70555;BME280;58104;52.744;15.242;2023-07-20T06:27:13;100368.81;;;23.65;45.61
70555;BME280;58104;52.744;15.242;2023-07-20T06:29:39;100367.87;;;23.53;46.16
70555;BME280;58104;52.744;15.242;2023-07-20T06:32:05;100367.82;;;23.53;46.18
70555;BME280;58104;52.744;15.242;2023-07-20T06:34:29;100361.86;;;23.44;46.23
70555;BME280;58104;52.744;15.242;2023-07-20T06:36:55;100363.36;;;23.63;46.05
70555;BME280;58104;52.744;15.242;2023-07-20T06:39:21;100356.26;;;23.97;45.63
70555;BME280;58104;52.744;15.242;2023-07-20T06:41:46;100358.76;;;24.22;45.43
70555;BME280;58104;52.744;15.242;2023-07-20T06:44:12;100355.94;;;24.45;44.77
70555;BME280;58104;52.744;15.242;2023-07-20T06:46:37;100354.37;;;24.77;44.21
70555;BME280;58104;52.744;15.242;2023-07-20T06:49:05;100357.13;;;24.76;44.11
70555;BME280;58104;52.744;15.242;2023-07-20T06:51:28;100360.74;;;24.76;44.08
70555;BME280;58104;52.744;15.242;2023-07-20T06:53:53;100360.83;;;24.78;43.95
70555;BME280;58104;52.744;15.242;2023-07-20T06:56:18;100359.50;;;24.83;43.87
70555;BME280;58104;52.744;15.242;2023-07-20T06:58:44;100361.33;;;24.91;44.05
70555;BME280;58104;52.744;15.242;2023-07-20T07:01:09;100361.64;;;24.91;44.12
70555;BME280;58104;52.744;15.242;2023-07-20T07:03:34;100365.67;;;24.87;44.15
70555;BME280;58104;52.744;15.242;2023-07-20T07:06:00;100374.20;;;24.92;44.42
70555;BME280;58104;52.744;15.242;2023-07-20T07:08:25;100381.20;;;25.00;44.63
70555;BME280;58104;52.744;15.242;2023-07-20T07:10:51;100385.50;;;25.01;44.75
70555;BME280;58104;52.744;15.242;2023-07-20T07:13:16;100386.15;;;24.99;44.90
70555;BME280;58104;52.744;15.242;2023-07-20T07:15:42;100388.90;;;25.05;44.85
70555;BME280;58104;52.744;15.242;2023-07-20T07:18:07;100387.72;;;24.97;44.96
70555;BME280;58104;52.744;15.242;2023-07-20T07:20:32;100388.87;;;24.96;44.82
70555;BME280;58104;52.744;15.242;2023-07-20T07:22:57;100389.62;;;24.99;44.84
70555;BME280;58104;52.744;15.242;2023-07-20T07:25:23;100389.68;;;25.17;44.34
70555;BME280;58104;52.744;15.242;2023-07-20T07:27:48;100388.42;;;25.53;43.21
70555;BME280;58104;52.744;15.242;2023-07-20T07:30:14;100393.94;;;25.91;42.25
70555;BME280;58104;52.744;15.242;2023-07-20T07:32:39;100397.22;;;26.13;41.65
70555;BME280;58104;52.744;15.242;2023-07-20T07:35:05;100398.95;;;26.13;41.44
70555;BME280;58104;52.744;15.242;2023-07-20T07:37:30;100401.10;;;26.22;41.13
70555;BME280;58104;52.744;15.242;2023-07-20T07:39:55;100396.50;;;26.09;41.15
70555;BME280;58104;52.744;15.242;2023-07-20T07:42:20;100389.70;;;26.11;41.21
70555;BME280;58104;52.744;15.242;2023-07-20T07:44:46;100394.51;;;26.05;41.21
70555;BME280;58104;52.744;15.242;2023-07-20T07:47:11;100396.88;;;26.07;41.13
70555;BME280;58104;52.744;15.242;2023-07-20T07:49:37;100399.06;;;26.16;40.89
70555;BME280;58104;52.744;15.242;2023-07-20T07:52:02;100407.78;;;26.08;41.11
70555;BME280;58104;52.744;15.242;2023-07-20T07:54:27;100402.92;;;26.08;41.10
70555;BME280;58104;52.744;15.242;2023-07-20T07:56:53;100404.24;;;26.09;41.10
70555;BME280;58104;52.744;15.242;2023-07-20T07:59:18;100404.52;;;26.10;41.04
70555;BME280;58104;52.744;15.242;2023-07-20T08:01:43;100407.14;;;26.21;40.75
70555;BME280;58104;52.744;15.242;2023-07-20T08:04:08;100408.61;;;26.28;40.53
70555;BME280;58104;52.744;15.242;2023-07-20T08:06:34;100411.41;;;26.41;40.67
70555;BME280;58104;52.744;15.242;2023-07-20T08:08:59;100409.21;;;26.61;40.50
70555;BME280;58104;52.744;15.242;2023-07-20T08:11:25;100412.49;;;26.62;40.40
70555;BME280;58104;52.744;15.242;2023-07-20T08:13:50;100421.92;;;26.58;40.61
70555;BME280;58104;52.744;15.242;2023-07-20T08:16:15;100415.30;;;26.56;40.71
70555;BME280;58104;52.744;15.242;2023-07-20T08:18:41;100420.73;;;26.45;40.74
70555;BME280;58104;52.744;15.242;2023-07-20T08:21:06;100420.36;;;26.23;40.88
70555;BME280;58104;52.744;15.242;2023-07-20T08:23:32;100421.32;;;26.17;40.80
70555;BME280;58104;52.744;15.242;2023-07-20T08:25:57;100421.94;;;26.14;40.86
70555;BME280;58104;52.744;15.242;2023-07-20T08:28:22;100427.39;;;26.16;40.83
70555;BME280;58104;52.744;15.242;2023-07-20T08:30:49;100421.09;;;26.25;40.68
70555;BME280;58104;52.744;15.242;2023-07-20T08:33:14;100415.49;;;26.22;40.63
70555;BME280;58104;52.744;15.242;2023-07-20T08:35:38;100423.55;;;26.20;40.52
70555;BME280;58104;52.744;15.242;2023-07-20T08:38:04;100419.64;;;26.41;40.27
70555;BME280;58104;52.744;15.242;2023-07-20T08:40:29;100415.13;;;26.62;39.78
70555;BME280;58104;52.744;15.242;2023-07-20T08:42:56;100417.51;;;26.52;40.44
70555;BME280;58104;52.744;15.242;2023-07-20T08:45:22;100420.93;;;26.45;40.49
70555;BME280;58104;52.744;15.242;2023-07-20T08:47:47;100421.61;;;26.42;40.43
70555;BME280;58104;52.744;15.242;2023-07-20T08:50:11;100417.38;;;26.42;40.35
70555;BME280;58104;52.744;15.242;2023-07-20T08:52:36;100421.64;;;26.37;40.35
70555;BME280;58104;52.744;15.242;2023-07-20T08:55:02;100420.09;;;26.37;40.50
70555;BME280;58104;52.744;15.242;2023-07-20T08:57:27;100424.55;;;26.43;40.46
70555;BME280;58104;52.744;15.242;2023-07-20T08:59:52;100423.07;;;26.42;40.16
70555;BME280;58104;52.744;15.242;2023-07-20T09:02:18;100422.96;;;26.39;40.38
70555;BME280;58104;52.744;15.242;2023-07-20T09:04:44;100421.37;;;26.38;40.61
70555;BME280;58104;52.744;15.242;2023-07-20T09:07:09;100419.37;;;26.30;40.62
70555;BME280;58104;52.744;15.242;2023-07-20T09:09:33;100414.84;;;25.72;40.74
70555;BME280;58104;52.744;15.242;2023-07-20T09:11:58;100415.19;;;25.84;40.94
70555;BME280;58104;52.744;15.242;2023-07-20T09:14:24;100414.02;;;25.99;39.84
70555;BME280;58104;52.744;15.242;2023-07-20T09:16:52;100412.94;;;25.89;39.71
70555;BME280;58104;52.744;15.242;2023-07-20T09:19:15;100411.28;;;25.98;38.99
70555;BME280;58104;52.744;15.242;2023-07-20T09:21:40;100411.51;;;25.92;39.12
70555;BME280;58104;52.744;15.242;2023-07-20T09:24:06;100404.00;;;26.00;38.95
70555;BME280;58104;52.744;15.242;2023-07-20T09:26:31;100402.58;;;26.22;38.52
70555;BME280;58104;52.744;15.242;2023-07-20T09:28:56;100400.77;;;26.39;38.03
70555;BME280;58104;52.744;15.242;2023-07-20T09:31:22;100405.94;;;26.12;38.70
70555;BME280;58104;52.744;15.242;2023-07-20T09:33:48;100399.67;;;25.83;38.77
70555;BME280;58104;52.744;15.242;2023-07-20T09:36:13;100400.95;;;25.96;37.73
70555;BME280;58104;52.744;15.242;2023-07-20T09:38:37;100404.65;;;25.98;37.93
70555;BME280;58104;52.744;15.242;2023-07-20T09:41:05;100406.32;;;26.12;37.79
70555;BME280;58104;52.744;15.242;2023-07-20T09:43:29;100408.97;;;26.21;37.18
70555;BME280;58104;52.744;15.242;2023-07-20T09:45:57;100410.06;;;26.26;37.58
70555;BME280;58104;52.744;15.242;2023-07-20T09:48:24;100406.98;;;25.73;38.16
70555;BME280;58104;52.744;15.242;2023-07-20T09:50:49;100402.70;;;26.00;37.71
70555;BME280;58104;52.744;15.242;2023-07-20T09:53:12;100400.33;;;26.29;37.37
70555;BME280;58104;52.744;15.242;2023-07-20T09:55:35;100401.36;;;26.27;37.67
70555;BME280;58104;52.744;15.242;2023-07-20T09:58:00;100401.40;;;26.34;37.15
70555;BME280;58104;52.744;15.242;2023-07-20T10:00:25;100406.66;;;26.14;37.37
70555;BME280;58104;52.744;15.242;2023-07-20T10:02:52;100389.75;;;25.49;37.30
70555;BME280;58104;52.744;15.242;2023-07-20T10:05:17;100398.23;;;25.48;37.53
70555;BME280;58104;52.744;15.242;2023-07-20T10:07:45;100398.67;;;24.93;37.53
70555;BME280;58104;52.744;15.242;2023-07-20T10:10:09;100402.11;;;25.37;36.99
70555;BME280;58104;52.744;15.242;2023-07-20T10:12:33;100403.24;;;25.77;36.51
70555;BME280;58104;52.744;15.242;2023-07-20T10:15:02;100404.21;;;26.11;35.95
70555;BME280;58104;52.744;15.242;2023-07-20T10:17:25;100400.32;;;26.31;35.09
70555;BME280;58104;52.744;15.242;2023-07-20T10:19:52;100400.47;;;26.24;35.71
70555;BME280;58104;52.744;15.242;2023-07-20T10:22:16;100401.02;;;26.17;35.98
70555;BME280;58104;52.744;15.242;2023-07-20T10:24:40;100398.61;;;26.17;36.22
70555;BME280;58104;52.744;15.242;2023-07-20T10:27:05;100402.19;;;26.08;36.67
70555;BME280;58104;52.744;15.242;2023-07-20T10:29:30;100403.57;;;26.20;36.36
70555;BME280;58104;52.744;15.242;2023-07-20T10:31:56;100403.12;;;25.71;37.14
70555;BME280;58104;52.744;15.242;2023-07-20T10:34:21;100405.92;;;25.88;37.36
70555;BME280;58104;52.744;15.242;2023-07-20T10:36:46;100405.68;;;25.95;36.87
70555;BME280;58104;52.744;15.242;2023-07-20T10:41:39;100402.98;;;26.04;36.73
70555;BME280;58104;52.744;15.242;2023-07-20T10:44:04;100403.03;;;25.86;36.93
70555;BME280;58104;52.744;15.242;2023-07-20T10:46:41;100399.23;;;25.87;36.87
70555;BME280;58104;52.744;15.242;2023-07-20T10:49:00;100399.97;;;25.96;37.00
70555;BME280;58104;52.744;15.242;2023-07-20T10:51:20;100394.42;;;26.03;37.08
70555;BME280;58104;52.744;15.242;2023-07-20T10:53:44;100388.48;;;26.18;37.03
70555;BME280;58104;52.744;15.242;2023-07-20T10:56:12;100384.21;;;26.30;36.76
70555;BME280;58104;52.744;15.242;2023-07-20T10:58:34;100382.02;;;26.46;36.36
70555;BME280;58104;52.744;15.242;2023-07-20T11:01:01;100391.20;;;26.35;36.31
70555;BME280;58104;52.744;15.242;2023-07-20T11:03:27;100389.77;;;26.17;36.43
70555;BME280;58104;52.744;15.242;2023-07-20T11:05:51;100388.65;;;25.93;35.98
70555;BME280;58104;52.744;15.242;2023-07-20T11:10:41;100390.12;;;26.30;34.84
70555;BME280;58104;52.744;15.242;2023-07-20T11:13:17;100385.33;;;26.31;34.46
70555;BME280;58104;52.744;15.242;2023-07-20T11:15:45;100385.03;;;26.44;34.59
70555;BME280;58104;52.744;15.242;2023-07-20T11:20:23;100381.04;;;26.43;34.16
70555;BME280;58104;52.744;15.242;2023-07-20T11:22:48;100388.23;;;25.88;34.67
70555;BME280;58104;52.744;15.242;2023-07-20T11:25:14;100388.13;;;25.81;34.64
70555;BME280;58104;52.744;15.242;2023-07-20T11:27:44;100385.68;;;25.58;34.77
70555;BME280;58104;52.744;15.242;2023-07-20T11:30:05;100375.66;;;25.56;35.01
70555;BME280;58104;52.744;15.242;2023-07-20T11:32:30;100373.06;;;25.54;34.77
70555;BME280;58104;52.744;15.242;2023-07-20T11:34:55;100372.48;;;25.88;34.73
70555;BME280;58104;52.744;15.242;2023-07-20T11:37:20;100379.48;;;25.43;34.49
70555;BME280;58104;52.744;15.242;2023-07-20T11:39:46;100367.31;;;25.49;34.82
70555;BME280;58104;52.744;15.242;2023-07-20T11:42:11;100378.37;;;25.94;33.73
70555;BME280;58104;52.744;15.242;2023-07-20T11:44:36;100371.70;;;26.19;33.17
70555;BME280;58104;52.744;15.242;2023-07-20T11:47:03;100379.88;;;26.20;33.16
70555;BME280;58104;52.744;15.242;2023-07-20T11:49:27;100381.21;;;26.11;33.60
70555;BME280;58104;52.744;15.242;2023-07-20T11:51:52;100380.07;;;26.10;32.95
70555;BME280;58104;52.744;15.242;2023-07-20T11:54:18;100385.67;;;25.81;33.96
70555;BME280;58104;52.744;15.242;2023-07-20T11:56:43;100380.64;;;25.79;33.38
70555;BME280;58104;52.744;15.242;2023-07-20T11:59:08;100385.11;;;25.81;33.65
70555;BME280;58104;52.744;15.242;2023-07-20T12:01:34;100383.61;;;25.75;33.45
70555;BME280;58104;52.744;15.242;2023-07-20T12:04:00;100383.03;;;25.74;33.62
70555;BME280;58104;52.744;15.242;2023-07-20T12:06:25;100391.86;;;25.54;34.00
70555;BME280;58104;52.744;15.242;2023-07-20T12:08:50;100392.64;;;25.87;32.96
70555;BME280;58104;52.744;15.242;2023-07-20T12:13:43;100390.14;;;25.83;32.59
70555;BME280;58104;52.744;15.242;2023-07-20T12:16:10;100391.22;;;25.81;32.81
70555;BME280;58104;52.744;15.242;2023-07-20T12:18:35;100395.05;;;25.41;33.50
70555;BME280;58104;52.744;15.242;2023-07-20T12:20:59;100397.55;;;25.72;33.31
70555;BME280;58104;52.744;15.242;2023-07-20T12:23:22;100394.95;;;25.80;33.36
70555;BME280;58104;52.744;15.242;2023-07-20T12:25:47;100397.45;;;25.98;33.36
70555;BME280;58104;52.744;15.242;2023-07-20T12:28:15;100399.38;;;26.01;33.67
70555;BME280;58104;52.744;15.242;2023-07-20T12:30:39;100397.13;;;26.01;33.70
70555;BME280;58104;52.744;15.242;2023-07-20T12:33:04;100395.19;;;26.16;33.48
70555;BME280;58104;52.744;15.242;2023-07-20T12:35:29;100402.87;;;25.97;33.94
70555;BME280;58104;52.744;15.242;2023-07-20T12:37:54;100404.65;;;25.88;34.08
70555;BME280;58104;52.744;15.242;2023-07-20T12:40:20;100397.02;;;25.70;34.39
70555;BME280;58104;52.744;15.242;2023-07-20T12:42:45;100396.98;;;25.94;33.71
70555;BME280;58104;52.744;15.242;2023-07-20T12:45:10;100401.40;;;25.62;34.38
70555;BME280;58104;52.744;15.242;2023-07-20T12:47:36;100392.76;;;25.55;34.55
70555;BME280;58104;52.744;15.242;2023-07-20T12:50:01;100391.81;;;25.90;33.67
70555;BME280;58104;52.744;15.242;2023-07-20T12:52:26;100393.89;;;25.96;33.64
70555;BME280;58104;52.744;15.242;2023-07-20T12:54:52;100391.32;;;25.45;33.98
70555;BME280;58104;52.744;15.242;2023-07-20T12:57:17;100396.85;;;25.36;34.59
70555;BME280;58104;52.744;15.242;2023-07-20T12:59:43;100394.47;;;25.49;34.54
70555;BME280;58104;52.744;15.242;2023-07-20T13:02:08;100404.38;;;25.05;35.01
70555;BME280;58104;52.744;15.242;2023-07-20T13:04:33;100396.96;;;25.46;34.66
70555;BME280;58104;52.744;15.242;2023-07-20T13:06:59;100394.86;;;25.17;34.97
70555;BME280;58104;52.744;15.242;2023-07-20T13:09:24;100387.59;;;25.03;34.84
70555;BME280;58104;52.744;15.242;2023-07-20T13:11:50;100383.16;;;25.54;34.74
70555;BME280;58104;52.744;15.242;2023-07-20T13:14:15;100386.33;;;25.62;34.67
70555;BME280;58104;52.744;15.242;2023-07-20T13:16:40;100387.77;;;25.98;33.30
70555;BME280;58104;52.744;15.242;2023-07-20T13:19:06;100390.74;;;25.35;34.36
70555;BME280;58104;52.744;15.242;2023-07-20T13:21:31;100390.41;;;25.34;34.49
70555;BME280;58104;52.744;15.242;2023-07-20T13:23:56;100386.33;;;25.48;34.16
70555;BME280;58104;52.744;15.242;2023-07-20T13:26:22;100387.50;;;25.46;33.88
70555;BME280;58104;52.744;15.242;2023-07-20T13:28:47;100401.56;;;25.55;34.00
70555;BME280;58104;52.744;15.242;2023-07-20T13:31:12;100398.30;;;25.44;34.22
70555;BME280;58104;52.744;15.242;2023-07-20T13:33:38;100402.32;;;26.07;34.12
70555;BME280;58104;52.744;15.242;2023-07-20T13:36:04;100410.27;;;26.15;34.08
70555;BME280;58104;52.744;15.242;2023-07-20T13:38:29;100419.41;;;26.33;33.90
70555;BME280;58104;52.744;15.242;2023-07-20T13:40:54;100411.08;;;26.08;34.39
70555;BME280;58104;52.744;15.242;2023-07-20T13:43:19;100412.49;;;26.05;34.48
70555;BME280;58104;52.744;15.242;2023-07-20T13:45:45;100420.76;;;25.81;35.14
70555;BME280;58104;52.744;15.242;2023-07-20T13:48:10;100422.67;;;25.79;35.22
70555;BME280;58104;52.744;15.242;2023-07-20T13:50:35;100420.65;;;25.94;35.19
70555;BME280;58104;52.744;15.242;2023-07-20T13:53:01;100426.97;;;25.67;35.73
70555;BME280;58104;52.744;15.242;2023-07-20T13:55:26;100424.53;;;25.61;36.23
70555;BME280;58104;52.744;15.242;2023-07-20T13:57:52;100420.23;;;25.81;36.40
70555;BME280;58104;52.744;15.242;2023-07-20T14:00:17;100413.90;;;25.76;36.04
70555;BME280;58104;52.744;15.242;2023-07-20T14:02:42;100415.00;;;25.85;36.26
70555;BME280;58104;52.744;15.242;2023-07-20T14:05:08;100414.84;;;25.80;35.98
70555;BME280;58104;52.744;15.242;2023-07-20T14:07:33;100414.35;;;25.78;36.30
70555;BME280;58104;52.744;15.242;2023-07-20T14:09:58;100416.74;;;25.85;36.21
70555;BME280;58104;52.744;15.242;2023-07-20T14:12:24;100413.32;;;25.64;36.46
70555;BME280;58104;52.744;15.242;2023-07-20T14:14:49;100407.56;;;25.90;35.85
70555;BME280;58104;52.744;15.242;2023-07-20T14:17:15;100411.32;;;25.67;35.65
70555;BME280;58104;52.744;15.242;2023-07-20T14:19:40;100409.76;;;25.18;36.83
70555;BME280;58104;52.744;15.242;2023-07-20T14:22:05;100409.97;;;25.51;36.54
70555;BME280;58104;52.744;15.242;2023-07-20T14:24:31;100410.03;;;25.63;36.07
70555;BME280;58104;52.744;15.242;2023-07-20T14:26:56;100411.83;;;25.51;36.50
70555;BME280;58104;52.744;15.242;2023-07-20T14:29:21;100414.13;;;25.64;35.84
70555;BME280;58104;52.744;15.242;2023-07-20T14:31:47;100407.27;;;25.36;35.82
70555;BME280;58104;52.744;15.242;2023-07-20T14:34:12;100409.32;;;25.32;36.71
70555;BME280;58104;52.744;15.242;2023-07-20T14:36:38;100403.27;;;25.10;36.90
70555;BME280;58104;52.744;15.242;2023-07-20T14:39:03;100403.67;;;25.16;36.48
70555;BME280;58104;52.744;15.242;2023-07-20T14:41:28;100408.51;;;25.46;35.95
70555;BME280;58104;52.744;15.242;2023-07-20T14:43:54;100397.14;;;25.51;35.29
70555;BME280;58104;52.744;15.242;2023-07-20T14:46:19;100396.13;;;25.47;36.00
70555;BME280;58104;52.744;15.242;2023-07-20T14:48:44;100388.65;;;25.61;35.82
70555;BME280;58104;52.744;15.242;2023-07-20T14:51:09;100386.09;;;25.46;36.64
70555;BME280;58104;52.744;15.242;2023-07-20T14:53:35;100388.18;;;25.51;34.93
70555;BME280;58104;52.744;15.242;2023-07-20T14:56:00;100382.67;;;25.45;35.31
70555;BME280;58104;52.744;15.242;2023-07-20T14:58:25;100387.86;;;25.21;35.51
70555;BME280;58104;52.744;15.242;2023-07-20T15:00:51;100388.10;;;24.95;36.60
70555;BME280;58104;52.744;15.242;2023-07-20T15:03:16;100386.79;;;25.03;36.17
70555;BME280;58104;52.744;15.242;2023-07-20T15:05:41;100384.21;;;25.31;35.14
70555;BME280;58104;52.744;15.242;2023-07-20T15:08:07;100380.29;;;25.29;34.04
70555;BME280;58104;52.744;15.242;2023-07-20T15:10:32;100380.51;;;25.05;35.09
70555;BME280;58104;52.744;15.242;2023-07-20T15:12:58;100379.01;;;25.28;34.49
70555;BME280;58104;52.744;15.242;2023-07-20T15:15:23;100377.08;;;25.24;34.53
70555;BME280;58104;52.744;15.242;2023-07-20T15:17:48;100384.19;;;25.36;33.56